Wetterdaten: Woche 24.05.21 - 30.05.21 (KW21)
Datum Zeit Temp. Aussen Temp. o. S. Temp +5cm Feuchte Auss Luftdruck Regen Sonnenschein Regendauer Solar Windben Empfang
24.05.2021 00:00 11,5 C 10,5 C 8,4 C 73 % 1013,1 hPa 0,0 l/m 0,00 h 0,00 h 0 W/m 9,4 km/h (2 Bft) 94,60 %
24.05.2021 01:00 10,7 C 9,9 C 7,8 C 76 % 1012,7 hPa 0,0 l/m 0,00 h 0,00 h 0 W/m 12,2 km/h (2 Bft) 96,44 %
24.05.2021 02:00 10,4 C 9,6 C 7,4 C 78 % 1012,1 hPa 0,0 l/m 0,00 h 0,00 h 0 W/m 15,1 km/h (3 Bft) 99,07 %
24.05.2021 03:00 10,3 C 9,4 C 7,4 C 82 % 1011,3 hPa 0,0 l/m 0,00 h 0,00 h 0 W/m 12,0 km/h (2 Bft) 96,92 %
24.05.2021 04:00 10,4 C 9,7 C 7,7 C 84 % 1010,8 hPa 0,0 l/m 0,00 h 0,00 h 0 W/m 12,1 km/h (2 Bft) 98,73 %
24.05.2021 05:00 10,8 C 10,1 C 8,3 C 84 % 1010,4 hPa 0,0 l/m 0,00 h 0,00 h 12 W/m 16,5 km/h (3 Bft) 96,51 %
24.05.2021 06:00 11,3 C 10,8 C 8,6 C 81 % 1010,0 hPa 0,0 l/m 0,00 h 0,00 h 40 W/m 17,3 km/h (3 Bft) 96,40 %
24.05.2021 07:00 12,3 C 12,2 C 9,7 C 78 % 1009,8 hPa 0,0 l/m 0,17 h 0,00 h 132 W/m 21,0 km/h (4 Bft) 98,93 %
24.05.2021 08:00 14,6 C 15,2 C 12,0 C 70 % 1009,4 hPa 0,0 l/m 0,87 h 0,00 h 310 W/m 22,5 km/h (4 Bft) 91,96 %
24.05.2021 09:00 16,1 C 16,9 C 13,9 C 66 % 1008,9 hPa 0,0 l/m 0,47 h 0,00 h 306 W/m 22,4 km/h (4 Bft) 94,66 %
24.05.2021 10:00 16,1 C 16,0 C 13,4 C 68 % 1008,7 hPa 0,0 l/m 0,00 h 0,00 h 229 W/m 18,3 km/h (3 Bft) 99,57 %
24.05.2021 11:00 16,3 C 16,0 C 13,2 C 65 % 1008,4 hPa 0,0 l/m 0,00 h 0,00 h 169 W/m 23,6 km/h (4 Bft) 98,09 %
24.05.2021 12:00 15,7 C 15,4 C 12,2 C 69 % 1008,1 hPa 0,0 l/m 0,00 h 0,43 h 192 W/m 19,3 km/h (3 Bft) 94,51 %
24.05.2021 13:00 14,3 C 13,7 C 10,0 C 82 % 1008,3 hPa 0,4 l/m 0,00 h 1,00 h 169 W/m 12,3 km/h (3 Bft) 98,94 %
24.05.2021 14:00 13,5 C 13,4 C 9,7 C 86 % 1008,3 hPa 0,2 l/m 0,00 h 0,67 h 222 W/m 22,1 km/h (4 Bft) 97,72 %
24.05.2021 15:00 13,6 C 13,3 C 9,9 C 85 % 1008,4 hPa 0,4 l/m 0,00 h 0,70 h 186 W/m 27,5 km/h (4 Bft) 96,16 %
24.05.2021 16:00 12,9 C 13,2 C 9,4 C 85 % 1008,4 hPa 0,0 l/m 0,40 h 0,20 h 301 W/m 21,2 km/h (4 Bft) 97,86 %
24.05.2021 17:00 14,7 C 15,4 C 11,9 C 77 % 1007,8 hPa 0,0 l/m 0,90 h 0,00 h 325 W/m 21,3 km/h (4 Bft) 96,83 %
24.05.2021 18:00 16,5 C 20,5 C 14,0 C 67 % 1007,4 hPa 0,0 l/m 1,00 h 0,00 h 483 W/m 22,9 km/h (4 Bft) 97,61 %
24.05.2021 19:00 16,5 C 16,7 C 12,9 C 63 % 1007,0 hPa 0,0 l/m 0,70 h 0,00 h 214 W/m 21,0 km/h (4 Bft) 97,85 %
24.05.2021 20:00 15,3 C 14,3 C 11,7 C 67 % 1007,0 hPa 0,0 l/m 0,00 h 0,00 h 33 W/m 13,1 km/h (3 Bft) 97,16 %
24.05.2021 21:00 11,9 C 10,9 C 8,6 C 81 % 1008,1 hPa 0,0 l/m 0,00 h 0,17 h 4 W/m 14,3 km/h (3 Bft) 98,57 %
24.05.2021 22:00 10,4 C 9,6 C 7,6 C 89 % 1008,6 hPa 0,0 l/m 0,00 h 0,07 h 0 W/m 7,4 km/h (2 Bft) 98,65 %
24.05.2021 23:00 10,1 C 9,4 C 7,8 C 90 % 1008,7 hPa 0,0 l/m 0,00 h 0,00 h 0 W/m 12,8 km/h (3 Bft) 95,94 %
25.05.2021 00:00 9,6 C 9,0 C 7,3 C 85 % 1009,0 hPa 0,0 l/m 0,00 h 0,00 h 0 W/m 13,9 km/h (3 Bft) 96,60 %
25.05.2021 01:00 9,4 C 8,7 C 6,9 C 87 % 1009,3 hPa 0,0 l/m 0,00 h 0,00 h 0 W/m 13,6 km/h (3 Bft) 96,25 %
25.05.2021 02:00 9,0 C 8,3 C 6,7 C 88 % 1009,5 hPa 0,0 l/m 0,00 h 0,00 h 0 W/m 17,9 km/h (3 Bft) 97,79 %
25.05.2021 03:00 8,6 C 7,8 C 6,1 C 88 % 1009,7 hPa 0,0 l/m 0,00 h 0,00 h 0 W/m 20,5 km/h (4 Bft) 99,15 %
25.05.2021 04:00 8,3 C 7,8 C 6,0 C 87 % 1009,9 hPa 0,0 l/m 0,00 h 0,00 h 0 W/m 18,4 km/h (3 Bft) 95,52 %
25.05.2021 05:00 8,4 C 7,8 C 6,1 C 88 % 1010,1 hPa 0,0 l/m 0,00 h 0,00 h 8 W/m 15,9 km/h (3 Bft) 96,34 %
25.05.2021 06:00 8,6 C 8,1 C 6,3 C 89 % 1010,2 hPa 0,2 l/m 0,00 h 0,20 h 35 W/m 15,4 km/h (3 Bft) 97,55 %
25.05.2021 07:00 8,5 C 7,9 C 5,8 C 93 % 1010,4 hPa 0,6 l/m 0,10 h 0,67 h 67 W/m 17,6 km/h (3 Bft) 97,15 %
25.05.2021 08:00 8,4 C 7,6 C 5,8 C 95 % 1010,7 hPa 1,0 l/m 0,00 h 1,00 h 66 W/m 18,3 km/h (3 Bft) 96,70 %
25.05.2021 09:00 9,1 C 9,2 C 7,0 C 94 % 1011,2 hPa 0,0 l/m 0,17 h 0,00 h 204 W/m 14,2 km/h (3 Bft) 95,99 %
25.05.2021 10:00 10,3 C 11,0 C 8,2 C 90 % 1011,9 hPa 0,0 l/m 0,33 h 0,00 h 304 W/m 16,0 km/h (3 Bft) 96,42 %
25.05.2021 11:00 11,3 C 11,5 C 8,5 C 88 % 1012,3 hPa 0,2 l/m 0,03 h 0,53 h 173 W/m 15,9 km/h (3 Bft) 98,08 %
25.05.2021 12:00 11,4 C 11,2 C 8,7 C 88 % 1013,0 hPa 0,4 l/m 0,27 h 0,37 h 298 W/m 23,0 km/h (4 Bft) 97,64 %
25.05.2021 13:00 11,9 C 12,8 C 12,4 C 90 % 1013,2 hPa 0,2 l/m 0,60 h 0,07 h 679 W/m 19,4 km/h (3 Bft) 97,52 %
25.05.2021 14:00 12,0 C 12,8 C 9,4 C 86 % 1014,0 hPa 0,2 l/m 0,53 h 0,23 h 505 W/m 23,0 km/h (4 Bft) 96,16 %
25.05.2021 15:00 12,9 C 14,1 C 10,9 C 80 % 1014,4 hPa 0,0 l/m 0,70 h 0,00 h 579 W/m 23,4 km/h (4 Bft) 97,80 %
25.05.2021 16:00 12,6 C 13,1 C 10,8 C 79 % 1014,4 hPa 0,0 l/m 0,37 h 0,00 h 322 W/m 24,9 km/h (4 Bft) 95,15 %
25.05.2021 17:00 11,9 C 12,0 C 9,0 C 85 % 1014,4 hPa 0,2 l/m 0,13 h 0,43 h 197 W/m 16,8 km/h (3 Bft) 99,36 %
25.05.2021 18:00 10,8 C 10,4 C 7,7 C 90 % 1014,4 hPa 0,2 l/m 0,00 h 0,87 h 94 W/m 23,3 km/h (4 Bft) 97,20 %
25.05.2021 19:00 10,5 C 10,2 C 7,8 C 91 % 1014,4 hPa 0,0 l/m 0,13 h 0,40 h 75 W/m 18,3 km/h (3 Bft) 95,45 %
25.05.2021 20:00 10,8 C 10,5 C 8,5 C 91 % 1014,5 hPa 0,0 l/m 0,00 h 0,00 h 25 W/m 16,5 km/h (3 Bft) 99,60 %
25.05.2021 21:00 10,8 C 10,1 C 8,4 C 90 % 1014,9 hPa 0,0 l/m 0,00 h 0,00 h 0 W/m 11,9 km/h (2 Bft) 98,65 %
25.05.2021 22:00 10,2 C 9,4 C 7,8 C 90 % 1015,2 hPa 0,0 l/m 0,00 h 0,00 h 0 W/m 12,2 km/h (3 Bft) 96,72 %
25.05.2021 23:00 9,9 C 9,4 C 7,8 C 91 % 1015,1 hPa 0,0 l/m 0,00 h 0,00 h 0 W/m 13,6 km/h (3 Bft) 98,06 %
26.05.2021 00:00 9,9 C 9,3 C 7,7 C 89 % 1014,9 hPa 0,0 l/m 0,00 h 0,00 h 0 W/m 13,3 km/h (3 Bft) 95,75 %
26.05.2021 01:00 9,5 C 8,9 C 7,3 C 89 % 1014,5 hPa 0,0 l/m 0,00 h 0,00 h 0 W/m 10,3 km/h (2 Bft) 96,82 %
26.05.2021 02:00 9,3 C 8,4 C 7,3 C 90 % 1014,1 hPa 0,0 l/m 0,00 h 0,00 h 0 W/m 14,3 km/h (3 Bft) 99,79 %
26.05.2021 03:00 9,0 C 8,3 C 6,7 C 91 % 1013,5 hPa 0,0 l/m 0,00 h 0,00 h 0 W/m 16,5 km/h (3 Bft) 97,72 %
26.05.2021 04:00 9,1 C 8,6 C 7,1 C 91 % 1013,1 hPa 0,0 l/m 0,00 h 0,00 h 0 W/m 16,1 km/h (3 Bft) 97,36 %
26.05.2021 05:00 9,0 C 8,3 C 6,9 C 92 % 1012,8 hPa 0,0 l/m 0,00 h 0,00 h 6 W/m 14,3 km/h (3 Bft) 96,51 %
26.05.2021 06:00 9,1 C 8,7 C 7,3 C 92 % 1012,5 hPa 0,0 l/m 0,00 h 0,00 h 35 W/m 11,6 km/h (2 Bft) 96,64 %
26.05.2021 07:00 9,4 C 9,2 C 7,7 C 91 % 1012,2 hPa 0,0 l/m 0,00 h 0,00 h 87 W/m 13,8 km/h (3 Bft) 98,36 %
26.05.2021 08:00 10,1 C 10,2 C 8,6 C 89 % 1012,1 hPa 0,0 l/m 0,00 h 0,03 h 160 W/m 12,5 km/h (3 Bft) 97,51 %
26.05.2021 09:00 10,9 C 11,8 C 10,0 C 85 % 1011,9 hPa 0,0 l/m 0,17 h 0,00 h 229 W/m 13,6 km/h (3 Bft) 96,27 %
26.05.2021 10:00 11,9 C 13,1 C 11,6 C 81 % 1011,5 hPa 0,0 l/m 0,37 h 0,00 h 353 W/m 9,1 km/h (2 Bft) 97,23 %
26.05.2021 11:00 12,8 C 13,5 C 11,7 C 78 % 1011,1 hPa 0,0 l/m 0,27 h 0,00 h 327 W/m 7,6 km/h (2 Bft) 98,99 %
26.05.2021 12:00 14,1 C 15,9 C 16,7 C 74 % 1010,9 hPa 0,0 l/m 0,70 h 0,00 h 597 W/m 14,4 km/h (3 Bft) 96,05 %
26.05.2021 13:00 14,8 C 15,8 C 14,5 C 72 % 1011,0 hPa 0,0 l/m 0,43 h 0,00 h 396 W/m 13,9 km/h (3 Bft) 95,80 %
26.05.2021 14:00 15,0 C 16,4 C 12,9 C 75 % 1011,1 hPa 0,0 l/m 0,47 h 0,07 h 531 W/m 14,5 km/h (3 Bft) 96,58 %
26.05.2021 15:00 16,3 C 18,0 C 13,8 C 70 % 1011,0 hPa 0,0 l/m 0,75 h 0,00 h 624 W/m 18,1 km/h (3 Bft) 99,23 %
26.05.2021 16:00 15,0 C 15,5 C 12,4 C 70 % 1011,3 hPa 0,0 l/m 0,30 h 0,03 h 289 W/m 17,4 km/h (3 Bft) 97,08 %
26.05.2021 17:00 15,0 C 14,9 C 12,2 C 68 % 1011,4 hPa 0,0 l/m 0,07 h 0,00 h 187 W/m 21,5 km/h (4 Bft) 96,15 %
26.05.2021 18:00 14,6 C 15,1 C 12,0 C 69 % 1011,7 hPa 0,0 l/m 0,30 h 0,00 h 223 W/m 20,6 km/h (4 Bft) 98,84 %
26.05.2021 19:00 14,2 C 13,8 C 11,0 C 68 % 1012,1 hPa 0,0 l/m 0,10 h 0,00 h 106 W/m 20,3 km/h (4 Bft) 95,58 %
26.05.2021 20:00 13,4 C 12,7 C 10,3 C 69 % 1012,6 hPa 0,0 l/m 0,00 h 0,03 h 36 W/m 16,4 km/h (3 Bft) 97,08 %
26.05.2021 21:00 12,4 C 11,6 C 9,0 C 77 % 1013,1 hPa 0,0 l/m 0,00 h 0,40 h 5 W/m 15,1 km/h (3 Bft) 98,57 %
26.05.2021 22:00 11,2 C 10,6 C 8,1 C 88 % 1013,6 hPa 0,0 l/m 0,00 h 0,37 h 0 W/m 11,8 km/h (2 Bft) 98,01 %
26.05.2021 23:00 11,0 C 10,3 C 7,9 C 90 % 1014,1 hPa 0,0 l/m 0,00 h 0,27 h 0 W/m 12,0 km/h (2 Bft) 96,79 %
27.05.2021 00:00 10,8 C 10,2 C 8,4 C 92 % 1014,2 hPa 0,0 l/m 0,00 h 0,03 h 0 W/m 12,5 km/h (3 Bft) 94,32 %
27.05.2021 01:00 10,8 C 10,2 C 8,5 C 92 % 1014,3 hPa 0,0 l/m 0,00 h 0,00 h 0 W/m 10,8 km/h (2 Bft) 97,08 %
27.05.2021 02:00 10,9 C 10,5 C 8,7 C 91 % 1014,4 hPa 0,0 l/m 0,00 h 0,00 h 0 W/m 13,6 km/h (3 Bft) 95,77 %
27.05.2021 03:00 10,9 C 10,3 C 8,8 C 91 % 1014,5 hPa 0,0 l/m 0,00 h 0,00 h 0 W/m 13,3 km/h (3 Bft) 99,93 %
27.05.2021 04:00 10,9 C 10,6 C 8,9 C 91 % 1014,7 hPa 0,0 l/m 0,00 h 0,00 h 0 W/m 16,1 km/h (3 Bft) 97,14 %
27.05.2021 05:00 10,8 C 10,0 C 8,5 C 91 % 1015,0 hPa 0,0 l/m 0,00 h 0,00 h 0 W/m 13,4 km/h (3 Bft) 95,87 %
27.05.2021 06:00 10,5 C 10,0 C 8,3 C 89 % 1015,3 hPa 0,0 l/m 0,00 h 0,10 h 13 W/m 17,2 km/h (3 Bft) 98,31 %
27.05.2021 07:00 10,1 C 9,4 C 7,4 C 92 % 1015,7 hPa 0,4 l/m 0,00 h 1,00 h 28 W/m 13,9 km/h (3 Bft) 96,22 %
27.05.2021 08:00 9,8 C 9,4 C 7,4 C 95 % 1016,2 hPa 0,4 l/m 0,00 h 0,93 h 75 W/m 10,4 km/h (2 Bft) 98,37 %
27.05.2021 09:00 10,1 C 9,6 C 7,8 C 96 % 1016,5 hPa 0,6 l/m 0,00 h 1,00 h 116 W/m 13,5 km/h (3 Bft) 99,51 %
27.05.2021 10:00 10,3 C 10,0 C 8,3 C 96 % 1016,8 hPa 0,6 l/m 0,00 h 1,00 h 139 W/m 12,6 km/h (3 Bft) 94,97 %
27.05.2021 11:00 10,3 C 9,8 C 8,5 C 97 % 1017,3 hPa 1,0 l/m 0,00 h 1,00 h 116 W/m 14,6 km/h (3 Bft) 96,65 %
27.05.2021 12:00 11,1 C 11,2 C 9,4 C 96 % 1017,6 hPa 0,0 l/m 0,00 h 0,57 h 223 W/m 16,3 km/h (3 Bft) 98,60 %
27.05.2021 13:00 11,6 C 11,6 C 9,5 C 94 % 1018,0 hPa 0,0 l/m 0,00 h 0,00 h 163 W/m 15,2 km/h (3 Bft) 95,80 %
27.05.2021 14:00 12,1 C 12,2 C 9,8 C 91 % 1018,3 hPa 0,0 l/m 0,17 h 0,23 h 241 W/m 17,1 km/h (3 Bft) 99,57 %
27.05.2021 15:00 12,1 C 11,9 C 9,5 C 88 % 1018,7 hPa 0,0 l/m 0,00 h 0,00 h 118 W/m 16,7 km/h (3 Bft) 99,88 %
27.05.2021 16:00 12,7 C 12,8 C 10,9 C 86 % 1019,2 hPa 0,2 l/m 0,13 h 0,13 h 223 W/m 20,4 km/h (4 Bft) 94,02 %
27.05.2021 17:00 11,9 C 11,5 C 9,7 C 89 % 1019,7 hPa 0,0 l/m 0,00 h 0,07 h 78 W/m 15,1 km/h (3 Bft) 96,94 %
27.05.2021 18:00 11,9 C 11,6 C 9,9 C 88 % 1020,2 hPa 0,0 l/m 0,00 h 0,00 h 92 W/m 15,0 km/h (3 Bft) 98,71 %
27.05.2021 19:00 11,2 C 10,7 C 8,7 C 93 % 1020,6 hPa 0,0 l/m 0,00 h 0,27 h 68 W/m 7,8 km/h (2 Bft) 95,30 %
27.05.2021 20:00 11,2 C 10,8 C 8,9 C 93 % 1020,9 hPa 0,0 l/m 0,00 h 0,00 h 24 W/m 9,9 km/h (2 Bft) 97,65 %
27.05.2021 21:00 10,8 C 10,2 C 8,6 C 92 % 1021,4 hPa 0,0 l/m 0,07 h 0,00 h 13 W/m 4,8 km/h (1 Bft) 96,09 %
27.05.2021 22:00 10,4 C 9,5 C 8,2 C 92 % 1022,0 hPa 0,0 l/m 0,00 h 0,00 h 0 W/m 3,1 km/h (1 Bft) 93,96 %
27.05.2021 23:00 9,6 C 7,8 C 7,0 C 93 % 1022,6 hPa 0,0 l/m 0,00 h 0,00 h 0 W/m 0,0 km/h (0 Bft) 97,34 %
28.05.2021 00:00 8,5 C 7,2 C 6,2 C 94 % 1022,9 hPa 0,0 l/m 0,00 h 0,00 h 0 W/m 0,0 km/h (0 Bft) 97,69 %
28.05.2021 01:00 7,9 C 6,7 C 5,8 C 94 % 1023,1 hPa 0,0 l/m 0,00 h 0,00 h 0 W/m 0,2 km/h (0 Bft) 97,01 %
28.05.2021 02:00 7,5 C 6,4 C 5,6 C 96 % 1023,4 hPa 0,0 l/m 0,00 h 0,00 h 0 W/m 0,5 km/h (0 Bft) 98,22 %
28.05.2021 03:00 7,0 C 5,9 C 5,1 C 96 % 1023,6 hPa 0,0 l/m 0,00 h 0,00 h 0 W/m 0,0 km/h (0 Bft) 99,50 %
28.05.2021 04:00 6,4 C 5,3 C 4,8 C 96 % 1023,6 hPa 0,0 l/m 0,00 h 0,00 h 0 W/m 0,1 km/h (0 Bft) 97,69 %
28.05.2021 05:00 5,8 C 4,8 C 4,5 C 96 % 1024,0 hPa 0,0 l/m 0,00 h 0,00 h 9 W/m 0,0 km/h (0 Bft) 97,17 %
28.05.2021 06:00 5,8 C 5,4 C 4,8 C 97 % 1024,4 hPa 0,0 l/m 0,00 h 0,00 h 39 W/m 0,4 km/h (0 Bft) 98,64 %
28.05.2021 07:00 6,9 C 7,1 C 6,4 C 98 % 1025,0 hPa 0,0 l/m 0,00 h 0,00 h 71 W/m 3,2 km/h (1 Bft) 98,22 %
28.05.2021 08:00 8,0 C 8,4 C 7,4 C 99 % 1025,3 hPa 0,2 l/m 0,00 h 0,00 h 121 W/m 4,2 km/h (1 Bft) 93,81 %
28.05.2021 09:00 8,7 C 9,7 C 8,7 C 99 % 1025,7 hPa 0,0 l/m 0,00 h 0,00 h 174 W/m 5,3 km/h (1 Bft) 96,44 %
28.05.2021 10:00 10,0 C 12,3 C 11,6 C 99 % 1025,8 hPa 0,0 l/m 0,37 h 0,00 h 386 W/m 6,2 km/h (2 Bft) 98,03 %
28.05.2021 11:00 13,0 C 17,3 C 15,3 C 90 % 1025,7 hPa 0,0 l/m 0,90 h 0,00 h 815 W/m 8,9 km/h (2 Bft) 98,87 %
28.05.2021 12:00 15,9 C 19,3 C 20,9 C 75 % 1025,4 hPa 0,0 l/m 1,00 h 0,00 h 873 W/m 9,8 km/h (2 Bft) 99,04 %
28.05.2021 13:00 17,2 C 20,6 C 21,5 C 67 % 1024,9 hPa 0,0 l/m 1,00 h 0,00 h 851 W/m 11,3 km/h (2 Bft) 96,09 %
28.05.2021 14:00 18,5 C 21,9 C 16,7 C 60 % 1024,5 hPa 0,0 l/m 1,00 h 0,00 h 761 W/m 13,0 km/h (3 Bft) 97,79 %
28.05.2021 15:00 18,9 C 22,8 C 16,8 C 58 % 1024,0 hPa 0,0 l/m 1,00 h 0,00 h 655 W/m 11,5 km/h (2 Bft) 98,29 %
28.05.2021 16:00 20,1 C 25,6 C 17,4 C 52 % 1023,7 hPa 0,0 l/m 1,00 h 0,00 h 693 W/m 9,9 km/h (2 Bft) 96,80 %
28.05.2021 17:00 20,7 C 25,7 C 18,1 C 51 % 1023,2 hPa 0,0 l/m 0,97 h 0,00 h 534 W/m 10,2 km/h (2 Bft) 99,15 %
28.05.2021 18:00 20,3 C 23,8 C 17,5 C 52 % 1022,8 hPa 0,0 l/m 1,00 h 0,00 h 334 W/m 7,8 km/h (2 Bft) 95,87 %
28.05.2021 19:00 19,2 C 19,4 C 15,8 C 56 % 1022,8 hPa 0,0 l/m 0,80 h 0,00 h 188 W/m 9,0 km/h (2 Bft) 98,36 %
28.05.2021 20:00 17,8 C 16,8 C 14,1 C 57 % 1022,9 hPa 0,0 l/m 0,17 h 0,00 h 49 W/m 10,4 km/h (2 Bft) 98,50 %
28.05.2021 21:00 16,6 C 15,2 C 12,7 C 61 % 1023,3 hPa 0,0 l/m 0,27 h 0,00 h 17 W/m 8,2 km/h (2 Bft) 97,15 %
28.05.2021 22:00 15,2 C 13,1 C 10,6 C 66 % 1023,7 hPa 0,0 l/m 0,00 h 0,00 h 0 W/m 1,8 km/h (1 Bft) 97,44 %
28.05.2021 23:00 13,6 C 11,8 C 9,2 C 73 % 1023,8 hPa 0,0 l/m 0,00 h 0,00 h 0 W/m 1,3 km/h (1 Bft) 97,13 %
29.05.2021 00:00 12,3 C 10,6 C 8,3 C 79 % 1024,0 hPa 0,0 l/m 0,00 h 0,00 h 0 W/m 0,0 km/h (0 Bft) 94,94 %
29.05.2021 01:00 11,0 C 9,3 C 7,4 C 84 % 1024,0 hPa 0,0 l/m 0,00 h 0,00 h 0 W/m 0,0 km/h (0 Bft) 98,32 %
29.05.2021 02:00 9,9 C 8,3 C 6,6 C 88 % 1024,1 hPa 0,0 l/m 0,00 h 0,00 h 0 W/m 0,0 km/h (0 Bft) 98,28 %
29.05.2021 03:00 9,0 C 7,5 C 6,1 C 91 % 1024,1 hPa 0,0 l/m 0,00 h 0,00 h 0 W/m 0,0 km/h (0 Bft) 99,93 %
29.05.2021 04:00 8,4 C 7,3 C 5,7 C 92 % 1024,2 hPa 0,0 l/m 0,00 h 0,00 h 0 W/m 0,7 km/h (0 Bft) 96,77 %
29.05.2021 05:00 8,2 C 7,4 C 5,9 C 94 % 1024,4 hPa 0,0 l/m 0,00 h 0,00 h 9 W/m 0,1 km/h (0 Bft) 97,37 %
29.05.2021 06:00 8,0 C 7,4 C 6,0 C 94 % 1024,7 hPa 0,0 l/m 0,00 h 0,00 h 21 W/m 0,3 km/h (0 Bft) 96,50 %
29.05.2021 07:00 9,4 C 9,8 C 8,0 C 96 % 1025,1 hPa 0,0 l/m 0,03 h 0,00 h 53 W/m 5,8 km/h (2 Bft) 95,38 %
29.05.2021 08:00 13,1 C 16,6 C 12,0 C 91 % 1025,6 hPa 0,0 l/m 1,00 h 0,00 h 397 W/m 6,3 km/h (2 Bft) 95,65 %
29.05.2021 09:00 16,6 C 22,8 C 17,0 C 74 % 1025,8 hPa 0,0 l/m 1,00 h 0,00 h 576 W/m 10,5 km/h (2 Bft) 97,66 %
29.05.2021 10:00 17,9 C 21,4 C 20,5 C 67 % 1026,0 hPa 0,0 l/m 0,93 h 0,00 h 711 W/m 12,1 km/h (2 Bft) 97,88 %
29.05.2021 11:00 18,6 C 21,9 C 19,3 C 63 % 1026,2 hPa 0,0 l/m 0,87 h 0,00 h 791 W/m 13,6 km/h (3 Bft) 97,37 %
29.05.2021 12:00 19,5 C 22,6 C 24,9 C 61 % 1026,3 hPa 0,0 l/m 0,93 h 0,00 h 957 W/m 16,6 km/h (3 Bft) 99,48 %
29.05.2021 13:00 19,3 C 21,3 C 22,1 C 62 % 1026,2 hPa 0,0 l/m 0,70 h 0,00 h 753 W/m 20,7 km/h (4 Bft) 97,51 %
29.05.2021 14:00 19,8 C 22,6 C 17,8 C 61 % 1026,2 hPa 0,0 l/m 0,87 h 0,00 h 839 W/m 20,2 km/h (4 Bft) 95,99 %
29.05.2021 15:00 19,9 C 23,1 C 17,5 C 61 % 1026,2 hPa 0,0 l/m 0,90 h 0,00 h 819 W/m 17,9 km/h (3 Bft) 99,43 %
29.05.2021 16:00 20,1 C 25,6 C 18,0 C 60 % 1026,3 hPa 0,0 l/m 1,00 h 0,00 h 753 W/m 17,6 km/h (3 Bft) 97,95 %
29.05.2021 17:00 20,4 C 26,1 C 18,7 C 59 % 1026,3 hPa 0,0 l/m 1,00 h 0,00 h 602 W/m 17,5 km/h (3 Bft) 95,58 %
29.05.2021 18:00 20,5 C 26,0 C 18,9 C 60 % 1026,1 hPa 0,0 l/m 1,00 h 0,00 h 454 W/m 18,8 km/h (3 Bft) 97,70 %
29.05.2021 19:00 19,7 C 20,4 C 15,8 C 59 % 1026,0 hPa 0,0 l/m 0,80 h 0,00 h 249 W/m 12,5 km/h (3 Bft) 99,13 %
29.05.2021 20:00 17,8 C 17,0 C 14,4 C 63 % 1026,2 hPa 0,0 l/m 0,00 h 0,00 h 36 W/m 10,5 km/h (2 Bft) 96,08 %
29.05.2021 21:00 16,5 C 15,2 C 12,9 C 68 % 1026,6 hPa 0,0 l/m 0,00 h 0,00 h 12 W/m 4,7 km/h (1 Bft) 97,66 %
29.05.2021 22:00 14,9 C 13,3 C 11,0 C 75 % 1027,0 hPa 0,0 l/m 0,00 h 0,00 h 0 W/m 0,4 km/h (0 Bft) 98,01 %
29.05.2021 23:00 13,6 C 11,8 C 9,8 C 81 % 1027,2 hPa 0,0 l/m 0,00 h 0,00 h 0 W/m 0,0 km/h (0 Bft) 99,72 %
30.05.2021 00:00 12,3 C 10,6 C 8,9 C 86 % 1027,3 hPa 0,0 l/m 0,00 h 0,00 h 0 W/m 0,0 km/h (0 Bft) 92,34 %
30.05.2021 01:00 11,3 C 9,8 C 8,2 C 89 % 1027,4 hPa 0,0 l/m 0,00 h 0,00 h 0 W/m 0,0 km/h (0 Bft) 95,44 %
30.05.2021 02:00 10,6 C 9,7 C 7,8 C 90 % 1027,5 hPa 0,0 l/m 0,00 h 0,00 h 0 W/m 0,6 km/h (0 Bft) 94,30 %
30.05.2021 03:00 10,3 C 9,2 C 7,6 C 91 % 1027,5 hPa 0,0 l/m 0,00 h 0,00 h 0 W/m 0,2 km/h (0 Bft) 97,16 %
30.05.2021 04:00 9,7 C 8,2 C 7,0 C 92 % 1027,5 hPa 0,0 l/m 0,00 h 0,00 h 0 W/m 0,0 km/h (0 Bft) 98,94 %
30.05.2021 05:00 8,9 C 7,6 C 6,4 C 93 % 1027,6 hPa 0,0 l/m 0,00 h 0,00 h 9 W/m 0,0 km/h (0 Bft) 96,23 %
30.05.2021 06:00 8,6 C 8,0 C 6,8 C 95 % 1027,7 hPa 0,0 l/m 0,00 h 0,00 h 24 W/m 0,0 km/h (0 Bft) 98,20 %
30.05.2021 07:00 9,7 C 9,9 C 8,2 C 96 % 1027,8 hPa 0,0 l/m 0,07 h 0,00 h 58 W/m 3,8 km/h (1 Bft) 94,74 %
30.05.2021 08:00 13,0 C 17,0 C 12,1 C 92 % 1028,0 hPa 0,0 l/m 1,00 h 0,00 h 401 W/m 6,0 km/h (2 Bft) 97,51 %
30.05.2021 09:00 17,4 C 23,3 C 17,5 C 71 % 1028,1 hPa 0,0 l/m 1,00 h 0,00 h 583 W/m 7,2 km/h (2 Bft) 96,79 %
30.05.2021 10:00 18,5 C 21,8 C 22,5 C 65 % 1028,1 hPa 0,0 l/m 1,00 h 0,00 h 731 W/m 7,9 km/h (2 Bft) 99,72 %
30.05.2021 11:00 19,7 C 23,1 C 20,8 C 59 % 1027,9 hPa 0,0 l/m 1,00 h 0,00 h 848 W/m 9,9 km/h (2 Bft) 98,08 %
30.05.2021 12:00 21,3 C 24,0 C 28,1 C 51 % 1027,6 hPa 0,0 l/m 1,00 h 0,00 h 927 W/m 11,0 km/h (2 Bft) 97,78 %
30.05.2021 13:00 22,4 C 24,9 C 30,8 C 49 % 1027,2 hPa 0,0 l/m 1,00 h 0,00 h 949 W/m 11,4 km/h (2 Bft) 96,09 %
30.05.2021 14:00 23,0 C 26,7 C 20,5 C 48 % 1026,7 hPa 0,0 l/m 1,00 h 0,00 h 949 W/m 12,5 km/h (3 Bft) 98,79 %
30.05.2021 15:00 24,0 C 27,4 C 21,2 C 46 % 1026,0 hPa 0,0 l/m 1,00 h 0,00 h 863 W/m 13,6 km/h (3 Bft) 98,43 %
30.05.2021 16:00 24,4 C 30,0 C 22,3 C 44 % 1025,3 hPa 0,0 l/m 1,00 h 0,00 h 752 W/m 15,0 km/h (3 Bft) 96,08 %
30.05.2021 17:00 24,4 C 30,5 C 22,7 C 45 % 1024,9 hPa 0,0 l/m 1,00 h 0,00 h 603 W/m 15,6 km/h (3 Bft) 99,29 %
30.05.2021 18:00 23,6 C 29,7 C 22,0 C 48 % 1024,4 hPa 0,0 l/m 1,00 h 0,00 h 428 W/m 14,8 km/h (3 Bft) 97,93 %
30.05.2021 19:00 21,8 C 22,6 C 18,6 C 52 % 1024,2 hPa 0,0 l/m 0,80 h 0,00 h 221 W/m 13,8 km/h (3 Bft) 96,66 %
30.05.2021 20:00 19,9 C 19,1 C 16,6 C 58 % 1024,1 hPa 0,0 l/m 0,00 h 0,00 h 31 W/m 8,8 km/h (2 Bft) 98,79 %
30.05.2021 21:00 18,1 C 16,9 C 14,6 C 64 % 1024,1 hPa 0,0 l/m 0,00 h 0,00 h 11 W/m 3,8 km/h (1 Bft) 97,73 %
30.05.2021 22:00 16,6 C 15,4 C 13,1 C 68 % 1024,4 hPa 0,0 l/m 0,00 h 0,00 h 0 W/m 1,9 km/h (1 Bft) 95,80 %
30.05.2021 23:00 15,7 C 14,2 C 12,0 C 71 % 1024,4 hPa 0,0 l/m 0,00 h 0,00 h 0 W/m 0,4 km/h (0 Bft) 98,22 %
Min-Datum _ 28.05.21 28.05.21 28.05.21 30.05.21 24.05.21 - - - - 26.05.21 27.05.21
_ Min-Zeit 05:54 05:19 04:34 16:50 19:30 - - - - 11:28 00:02
Minimum _ 5,6 C 4,4 C 4,5 C 42 % 1006,9 hPa - - - - 0,0 km/h (0 Bft) 11,11 %
Max-Datum _ 30.05.21 30.05.21 30.05.21 28.05.21 30.05.21 25.05.21 26.05.21 25.05.21 29.05.21 24.05.21 24.05.21
_ Max-Zeit 16:26 16:24 13:22 10:20 08:58 08:02 15:53 08:51 12:52 15:26 00:00
Maximum _ 24,6 C 31,1 C 35,0 C 100 % 1028,2 hPa 1,0 l/m 0,08 h 0,08 h 1160 W/m 51,5 km/h
S-SW (7 Bft)
100,00 %
Durchschnitt _ 13,0 C 13,5 C 11,1 C 80 % 1018,3 hPa #7,6 l/m #44:31 h #15:32 h 307 W/m 11,9 km/h (2 Bft) 97,26 %
© 2021 W. Hausmann